Map

Track Data

SID SEASON NUMBER BASIN SUBBASIN NAME ISO_TIME NATURE LAT LON WMO_WIND WMO_PRES WMO_AGENCY TRACK_TYPE DIST2LAND LANDFALL IFLAG USA_AGENCY USA_ATCF_ID USA_LAT USA_LON USA_RECORD USA_STATUS USA_WIND USA_PRES USA_SSHS USA_R34_NE USA_R34_SE USA_R34_SW USA_R34_NW USA_R50_NE USA_R50_SE USA_R50_SW USA_R50_NW USA_R64_NE USA_R64_SE USA_R64_SW USA_R64_NW USA_POCI USA_ROCI USA_RMW USA_EYE TOKYO_LAT TOKYO_LON TOKYO_GRADE TOKYO_WIND TOKYO_PRES TOKYO_R50_DIR TOKYO_R50_LONG TOKYO_R50_SHORT TOKYO_R30_DIR TOKYO_R30_LONG TOKYO_R30_SHORT TOKYO_LAND CMA_LAT CMA_LON CMA_CAT CMA_WIND CMA_PRES HKO_LAT HKO_LON HKO_CAT HKO_WIND HKO_PRES NEWDELHI_LAT NEWDELHI_LON NEWDELHI_GRADE NEWDELHI_WIND NEWDELHI_PRES NEWDELHI_CI NEWDELHI_DP NEWDELHI_POCI REUNION_LAT REUNION_LON REUNION_TYPE REUNION_WIND REUNION_PRES REUNION_TNUM REUNION_CI REUNION_RMW REUNION_R34_NE REUNION_R34_SE REUNION_R34_SW REUNION_R34_NW REUNION_R50_NE REUNION_R50_SE REUNION_R50_SW REUNION_R50_NW REUNION_R64_NE REUNION_R64_SE REUNION_R64_SW REUNION_R64_NW BOM_LAT BOM_LON BOM_TYPE BOM_WIND BOM_PRES BOM_TNUM BOM_CI BOM_RMW BOM_R34_NE BOM_R34_SE BOM_R34_SW BOM_R34_NW BOM_R50_NE BOM_R50_SE BOM_R50_SW BOM_R50_NW BOM_R64_NE BOM_R64_SE BOM_R64_SW BOM_R64_NW BOM_ROCI BOM_POCI BOM_EYE BOM_POS_METHOD BOM_PRES_METHOD NADI_LAT NADI_LON NADI_CAT NADI_WIND NADI_PRES WELLINGTON_LAT WELLINGTON_LON WELLINGTON_WIND WELLINGTON_PRES DS824_LAT DS824_LON DS824_STAGE DS824_WIND DS824_PRES TD9636_LAT TD9636_LON TD9636_STAGE TD9636_WIND TD9636_PRES TD9635_LAT TD9635_LON TD9635_WIND TD9635_PRES TD9635_ROCI NEUMANN_LAT NEUMANN_LON NEUMANN_CLASS NEUMANN_WIND NEUMANN_PRES MLC_LAT MLC_LON MLC_CLASS MLC_WIND MLC_PRES USA_GUST BOM_GUST BOM_GUST_PER REUNION_GUST REUNION_GUST_PER USA_SEAHGT USA_SEARAD_NE USA_SEARAD_SE USA_SEARAD_SW USA_SEARAD_NW STORM_SPEED STORM_DIR
1930262N16150 1930 47 WP MM NOT_NAMED 1930-09-19 10:00:00 NR 15.7000 150.000 main 2014 2010 __________O___ -1 15.7000 150.000 7 13 280
1930262N16150 1930 47 WP MM NOT_NAMED 1930-09-19 12:00:00 NR 15.7786 149.553 main 2019 2013 __________P___ -1 15.7786 149.553 7 13 280
1930262N16150 1930 47 WP MM NOT_NAMED 1930-09-19 15:00:00 NR 15.8912 148.881 main 2023 2020 __________P___ -1 15.8912 148.881 7 13 279
1930262N16150 1930 47 WP MM NOT_NAMED 1930-09-19 18:00:00 NR 15.9925 148.206 main 2029 2028 __________P___ -1 15.9925 148.206 7 13 278
1930262N16150 1930 47 WP MM NOT_NAMED 1930-09-19 21:00:00 NR 16.0767 147.527 main 2038 2038 __________P___ -1 16.0767 147.527 7 13 277
1930262N16150 1930 47 WP MM NOT_NAMED 1930-09-19 22:00:00 NR 16.1000 147.300 main 2038 2038 __________O___ -1 16.1000 147.300 7 13 275
1930262N16150 1930 47 WP MM NOT_NAMED 1930-09-20 00:00:00 NR 16.1396 146.844 main 2038 2038 __________P___ -1 16.1396 146.844 7 13 275
1930262N16150 1930 47 WP MM NOT_NAMED 1930-09-20 03:00:00 NR 16.1927 146.161 main 2050 2050 __________P___ -1 16.1927 146.161 7 13 275
1930262N16150 1930 47 WP MM NOT_NAMED 1930-09-20 06:00:00 NR 16.2575 145.483 main 2064 2065 __________P___ -1 16.2575 145.483 7 13 277
1930262N16150 1930 47 WP MM NOT_NAMED 1930-09-20 09:00:00 NR 16.3559 144.818 main 2081 2081 __________P___ -1 16.3559 144.818 7 13 280
1930262N16150 1930 47 WP MM NOT_NAMED 1930-09-20 10:00:00 NR 16.4000 144.600 main 2083 2066 __________O___ -1 16.4000 144.600 7 13 282
1930262N16150 1930 47 WP MM NOT_NAMED 1930-09-20 12:00:00 NR 16.4943 144.166 main 2066 2002 __________P___ -1 16.4943 144.166 7 13 285
1930262N16150 1930 47 WP MM NOT_NAMED 1930-09-20 15:00:00 NR 16.6735 143.528 main 2002 1945 __________P___ -1 16.6735 143.528 7 13 289
1930262N16150 1930 47 WP MM NOT_NAMED 1930-09-20 18:00:00 NR 16.9036 142.906 main 1945 1891 __________P___ -1 16.9036 142.906 7 13 294
1930262N16150 1930 47 WP MM NOT_NAMED 1930-09-20 21:00:00 NR 17.1906 142.299 main 1891 1873 __________P___ -1 17.1906 142.299 7 13 297
1930262N16150 1930 47 WP MM NOT_NAMED 1930-09-20 22:00:00 NR 17.3000 142.100 main 1873 1839 __________O___ -1 17.3000 142.100 7 14 301
1930262N16150 1930 47 WP MM NOT_NAMED 1930-09-21 00:00:00 NR 17.5429 141.677 main 1839 1786 __________P___ -1 17.5429 141.677 7 14 303
1930262N16150 1930 47 WP MM NOT_NAMED 1930-09-21 03:00:00 NR 17.9580 141.054 main 1786 1715 __________P___ -1 17.9580 141.054 7 14 307
1930262N16150 1930 47 WP MM NOT_NAMED 1930-09-21 06:00:00 NR 18.4060 140.470 main 1715 1641 __________P___ -1 18.4060 140.470 7 14 311
1930262N16150 1930 47 WP MM NOT_NAMED 1930-09-21 09:00:00 NR 18.8553 139.953 main 1641 1620 __________P___ -1 18.8553 139.953 7 13 313
1930262N16150 1930 47 WP MM NOT_NAMED 1930-09-21 10:00:00 NR 19.0000 139.800 main 1620 1585 __________O___ -1 19.0000 139.800 3 11 309
1930262N16150 1930 47 WP MM NOT_NAMED 1930-09-21 12:00:00 NR 19.1902 139.512 main 1585 1541 __________P___ -1 19.1902 139.512 3 9 307
1930262N16150 1930 47 WP MM NOT_NAMED 1930-09-21 15:00:00 NR 19.4618 139.151 main 1541 1496 __________P___ -1 19.4618 139.151 3 9 315
1930262N16150 1930 47 WP MM NOT_NAMED 1930-09-21 18:00:00 NR 19.7973 138.868 main 1496 1437 __________P___ -1 19.7973 138.868 3 10 331
1930262N16150 1930 47 WP MM NOT_NAMED 1930-09-21 21:00:00 NR 20.2869 138.656 main 1437 1413 __________P___ -1 20.2869 138.656 3 11 341
1930262N16150 1930 47 WP MM NOT_NAMED 1930-09-21 22:00:00 NR 20.5000 138.600 main 1413 1349 __________O___ -1 20.5000 138.600 4 16 346
1930262N16150 1930 47 WP MM NOT_NAMED 1930-09-22 00:00:00 NR 21.0640 138.456 main 1349 1243 __________P___ -1 21.0640 138.456 4 19 350
1930262N16150 1930 47 WP MM NOT_NAMED 1930-09-22 03:00:00 NR 22.0809 138.295 main 1243 1134 __________P___ -1 22.0809 138.295 4 22 354
1930262N16150 1930 47 WP MM NOT_NAMED 1930-09-22 06:00:00 NR 23.2084 138.221 main 1134 1042 __________P___ -1 23.2084 138.221 4 23 359
1930262N16150 1930 47 WP MM NOT_NAMED 1930-09-22 09:00:00 NR 24.3402 138.258 main 1042 1011 __________P___ -1 24.3402 138.258 4 23 3
1930262N16150 1930 47 WP MM NOT_NAMED 1930-09-22 10:00:00 NR 24.7000 138.300 main 1000 927 __________O___ -1 24.7000 138.300 4 21 9
1930262N16150 1930 47 WP MM NOT_NAMED 1930-09-22 12:00:00 NR 25.3769 138.430 main 927 840 __________P___ -1 25.3769 138.430 4 20 14
1930262N16150 1930 47 WP MM NOT_NAMED 1930-09-22 15:00:00 NR 26.3001 138.725 main 840 770 __________P___ -1 26.3001 138.725 4 19 19
1930262N16150 1930 47 WP MM NOT_NAMED 1930-09-22 18:00:00 NR 27.1430 139.109 main 770 708 __________P___ -1 27.1430 139.109 4 18 24
1930262N16150 1930 47 WP MM NOT_NAMED 1930-09-22 21:00:00 NR 27.9392 139.548 main 708 689 __________P___ -1 27.9392 139.548 4 18 26
1930262N16150 1930 47 WP MM NOT_NAMED 1930-09-22 22:00:00 NR 28.2000 139.700 main 689 __________O___ -1 28.2000 139.700 4 18 27

Digital Typhoon Data and Search

About IBTrACS Database

This database is a web-friendly format of International Best Track Archive for Climate Stewardship (IBTrACS), a global best track data archive curated by NOAA dating back to 1842.

Updated: 2021-12-06